Houston, Texas
Traffic Map
Current Weather Conditions
Houston, Texas
Overcast Thunderstorm
Overcast
74°
Feels Like: 74°
Wind Chill: 74° Ceiling: 2500
Heat Index: 74° Visibility: 2mi
Dew Point: 73° Wind: 14mph
Humidity: 97% Direction: 140° (SE)
Pressure: 29.93in Gusts: 0mph
Raw Report DataKIAH 211944Z 14012KT 2SM -TSRA BKN025CB OVC180 23/23 A2993 RMK AO2 PK WND 16032/1920 RAB29 TSB08 TS FRQ LTGICCCCG ALQDS MOV N P0028 T02330228
Traffic Incident Summary
Active as of:
Severity:
Category:
InformationThere was an issue retrieving the traffic information for this location. Please try a different location or try again shortly.
Advertisements